^^
Datos históricos de la estación: Murcia-Puente Tocinos
Diario Informe para Abril 3, 2019 Unidades:  Métrico    Ingés   Ambas
Diario Semanal Mensual Anual
  Máxima: Mínima: Promedio:
Temperatura: 13.9 °C 10.7 °C 12.2 °C
Punto de rocio: 11.9 °C 7.2 °C 9.6 °C
Humedad: 95% 71% 85%
Velocidad viento: 28.7km/h 0km/h 14.4km/h
Racha viento: 53.8km/h - -
Viento- - ESE
Presión: 1013.4 hPa 1008.4 hPa -
Precipitación: 21.1 mm    
 
 
Tabla de datos para Abril 3, 2019
Hora Temperatura Punto de rocio Presión Viento Velocidad viento Racha viento Humedad Intensidad lluvia(por hora) Nubes
00:04 12.8 °C 11.8 °C 1013.4 hPa NNE 17.4 km/h 38.1 km/h 94% 2.3 mm
00:09 12.7 °C 11.9 °C 1013.4 hPa NNE 18 km/h 38.9 km/h 95% 2.5 mm
00:14 12.7 °C 11.9 °C 1013.2 hPa NNE 18.3 km/h 33.8 km/h 95% 3.1 mm
00:19 12.7 °C 11.9 °C 1013.2 hPa NNE 18.4 km/h 30.6 km/h 95% 3.3 mm
00:24 12.6 °C 11.8 °C 1013.3 hPa NNE 18.4 km/h 30.6 km/h 95% 3.4 mm
00:29 12.6 °C 11.8 °C 1013.3 hPa NE 18.4 km/h 30.6 km/h 95% 3.6 mm
00:34 12.6 °C 11.7 °C 1013.3 hPa NE 18.4 km/h 30.6 km/h 94.5% 3.8 mm
00:39 12.5 °C 11.6 °C 1013.4 hPa NE 18.4 km/h 29 km/h 94% 4.4 mm
00:44 12.5 °C 11.5 °C 1013.4 hPa NNE 13.7 km/h 28.6 km/h 94.1% 4.4 mm
00:49 12.4 °C 11.4 °C 1013.4 hPa NE 11.9 km/h 31.7 km/h 94% 4.6 mm
00:54 12.4 °C 11.4 °C 1013.4 hPa NNE 14.6 km/h 32.2 km/h 94% 5.1 mm
00:59 12.4 °C 11.5 °C 1013.2 hPa NE 15.6 km/h 31.5 km/h 94.2% 5.1 mm
01:04 12.4 °C 11.6 °C 1013.2 hPa NNE 17.4 km/h 35.2 km/h 95% 5.4 mm
01:09 12.4 °C 11.6 °C 1013.2 hPa NE 18 km/h 39.6 km/h 95% 5.7 mm
01:14 12.4 °C 11.6 °C 1013.1 hPa NNE 22.1 km/h 40.2 km/h 95% 5.6 mm
01:19 12.4 °C 11.6 °C 1013.1 hPa NE 23.7 km/h 39.6 km/h 95% 5.7 mm
01:24 12.4 °C 11.6 °C 1013.1 hPa NE 23.4 km/h 40.2 km/h 95% 5.9 mm
01:29 12.4 °C 11.6 °C 1013.1 hPa NE 23.3 km/h 38.6 km/h 95% 6.2 mm
01:34 12.4 °C 11.6 °C 1013.1 hPa NNE 17.8 km/h 25.9 km/h 95% 6.2 mm
01:39 12.4 °C 11.6 °C 1013.1 hPa North 15.6 km/h 25.7 km/h 95% 6.1 mm
01:44 12.4 °C 11.6 °C 1012.9 hPa NNO 10.4 km/h 14.5 km/h 95% 6.4 mm
01:49 12.3 °C 11.6 °C 1012.9 hPa NNE 8.4 km/h 18.5 km/h 95% 6.6 mm
01:54 12.3 °C 11.5 °C 1012.9 hPa North 7.8 km/h 19.3 km/h 95% 6.4 mm
01:59 12.3 °C 11.5 °C 1012.6 hPa NNE 7.6 km/h 14.5 km/h 95% 6.2 mm
02:04 12.3 °C 11.5 °C 1012.6 hPa NO 7.6 km/h 15.6 km/h 95% 6.1 mm
02:09 12.3 °C 11.5 °C 1012.6 hPa ENE 7.6 km/h 16.1 km/h 95% 5.6 mm
02:14 12.3 °C 11.5 °C 1012.6 hPa North 5.7 km/h 22.2 km/h 95% 5.7 mm
02:19 12.3 °C 11.5 °C 1012.6 hPa NNE 5 km/h 22.5 km/h 95% 5.6 mm
02:24 12.2 °C 11.4 °C 1012.8 hPa North 6.8 km/h 26.2 km/h 94.6% 5.1 mm
02:29 12.2 °C 11.2 °C 1012.8 hPa NNE 7.6 km/h 25.7 km/h 93.9% 4.9 mm
02:34 12.1 °C 11 °C 1012.8 hPa NNE 10.1 km/h 24.1 km/h 93% 4.6 mm
02:39 12.1 °C 10.9 °C 1013.0 hPa North 11.1 km/h 19.3 km/h 92.1% 4.9 mm
02:44 12.1 °C 10.8 °C 1013.0 hPa North 9.4 km/h 20.4 km/h 92% 4.9 mm
02:49 12 °C 10.6 °C 1013.0 hPa North 8.7 km/h 25.1 km/h 91.5% 4.6 mm
02:54 12 °C 10.4 °C 1013.0 hPa NNO 9.6 km/h 25.9 km/h 90.4% 4.3 mm
02:59 12 °C 10.2 °C 1012.6 hPa North 10 km/h 25.9 km/h 88.9% 3.8 mm
03:04 12.1 °C 10.1 °C 1012.6 hPa North 10.8 km/h 30.6 km/h 87.8% 4.1 mm
03:09 12.2 °C 10.1 °C 1012.6 hPa North 11.1 km/h 30.6 km/h 87% 3.8 mm
03:14 12.2 °C 10.1 °C 1012.6 hPa North 11.1 km/h 20.4 km/h 87% 3.3 mm
03:19 12.1 °C 10 °C 1012.6 hPa Este 11.1 km/h 20.9 km/h 87% 2.8 mm
03:24 12.1 °C 10.1 °C 1012.6 hPa NO 8.5 km/h 17.2 km/h 87.5% 2.3 mm
03:29 12.1 °C 10.1 °C 1012.4 hPa NO 7.6 km/h 20.4 km/h 88% 2.3 mm
03:34 12 °C 10.2 °C 1012.4 hPa ONO 9.6 km/h 20.9 km/h 89% 2.1 mm
03:39 12 °C 10.4 °C 1012.4 hPa NO 10.3 km/h 16.1 km/h 89.8% 1.8 mm
03:44 11.9 °C 10.3 °C 1012.1 hPa NO 9.2 km/h 16.7 km/h 90% 1.3 mm
03:49 11.9 °C 10.3 °C 1012.1 hPa NO 8.7 km/h 18.5 km/h 90% 1.0 mm
03:54 11.9 °C 10.3 °C 1012.1 hPa NO 9.3 km/h 19.3 km/h 90% 0.8 mm
03:59 11.9 °C 10.3 °C 1012.0 hPa ONO 9.5 km/h 19.3 km/h 90% 0.8 mm
04:04 12 °C 10.4 °C 1012.0 hPa NO 8.6 km/h 14.5 km/h 90% 0.8 mm
04:09 11.9 °C 10.3 °C 1012.0 hPa ONO 8.4 km/h 8 km/h 90% 0.3 mm
04:14 11.9 °C 10.3 °C 1011.8 hPa ONO 4.7 km/h 8 km/h 90% 0.3 mm
04:19 11.9 °C 10.3 °C 1011.8 hPa ONO 3.2 km/h 5.8 km/h 90% 0.3 mm
04:24 11.9 °C 10.3 °C 1011.8 hPa ONO 2.5 km/h 6.4 km/h 90% 0.3 mm
04:29 11.9 °C 10.3 °C 1011.7 hPa ONO 2.2 km/h 6.9 km/h 90% 0.3 mm
04:34 11.9 °C 10.4 °C 1011.7 hPa SSE 2.9 km/h 8 km/h 90.6% 0.0 mm
04:39 11.9 °C 10.5 °C 1011.7 hPa SE 3.2 km/h 8 km/h 91% 0.0 mm
04:44 11.9 °C 10.5 °C 1011.7 hPa SSE 3.2 km/h 8 km/h 91% 0.0 mm
04:49 11.9 °C 10.5 °C 1011.7 hPa SSO 3.2 km/h 10 km/h 91% 0.0 mm
04:54 11.8 °C 10.3 °C 1011.8 hPa ENE 4.3 km/h 14.8 km/h 90.4% 0.0 mm
04:59 12 °C 10.1 °C 1011.8 hPa NE 4.7 km/h 18.3 km/h 88.1% 0.0 mm
05:04 12.2 °C 9.9 °C 1011.8 hPa NNE 8.3 km/h 19.3 km/h 85.8% 0.0 mm
05:09 12.3 °C 9.8 °C 1011.8 hPa NE 9.5 km/h 16.1 km/h 84.7% 0.0 mm
05:14 12.3 °C 9.7 °C 1011.6 hPa NE 9.5 km/h 17.2 km/h 84% 0.0 mm
05:19 12.4 °C 9.7 °C 1011.6 hPa NE 9.5 km/h 20.9 km/h 83.8% 0.0 mm
05:24 12.5 °C 9.7 °C 1011.6 hPa NE 11.3 km/h 26.2 km/h 83.2% 0.0 mm
05:29 12.5 °C 9.7 °C 1011.4 hPa NNE 11.9 km/h 25.7 km/h 83.1% 0.0 mm
05:34 12.6 °C 9.8 °C 1011.4 hPa NNE 11.9 km/h 22.5 km/h 83% 0.0 mm
05:39 12.5 °C 9.7 °C 1011.4 hPa NE 11.9 km/h 15.6 km/h 83% 0.0 mm
05:44 12.6 °C 9.8 °C 1011.3 hPa NNE 10.2 km/h 16.7 km/h 83% 0.0 mm
05:49 12.6 °C 9.8 °C 1011.3 hPa NNE 9.5 km/h 16.1 km/h 83% 0.0 mm
05:54 12.6 °C 9.7 °C 1011.3 hPa NNE 8.1 km/h 11.3 km/h 82.8% 0.0 mm
05:59 12.7 °C 9.6 °C 1011.2 hPa NNE 7.6 km/h 16.7 km/h 81.8% 0.0 mm
06:04 12.8 °C 9.6 °C 1011.2 hPa NE 8.2 km/h 26.2 km/h 80.6% 0.0 mm
06:09 13.1 °C 9.6 °C 1011.2 hPa NE 8.4 km/h 29.6 km/h 79.3% 0.0 mm
06:14 13.2 °C 9.5 °C 1011.2 hPa NE 14.1 km/h 29 km/h 78.2% 0.0 mm
06:19 13.2 °C 9.5 °C 1011.2 hPa NE 16.1 km/h 25.7 km/h 78.4% 0.0 mm
06:24 13.1 °C 9.6 °C 1011.2 hPa NNE 14.3 km/h 24.1 km/h 79% 0.0 mm
06:29 13.1 °C 9.6 °C 1011.2 hPa NNE 13.7 km/h 24.1 km/h 79% 0.0 mm
06:34 13.1 °C 9.6 °C 1011.2 hPa NE 13.7 km/h 24.1 km/h 79% 0.0 mm
06:39 13 °C 9.6 °C 1011.2 hPa NE 13.7 km/h 23.3 km/h 79.9% 0.0 mm
06:44 12.9 °C 9.6 °C 1011.2 hPa NE 10.9 km/h 24.1 km/h 80% 0.0 mm
06:49 12.9 °C 9.6 °C 1011.2 hPa NNE 10 km/h 24.5 km/h 80.3% 0.0 mm
06:54 12.9 °C 9.7 °C 1011.3 hPa NNE 12.7 km/h 27.8 km/h 80.6% 0.0 mm
06:59 13 °C 9.7 °C 1011.3 hPa NNE 13.7 km/h 27.4 km/h 80% 0.0 mm
07:04 13.2 °C 9.5 °C 1011.3 hPa NNE 15.5 km/h 31.7 km/h 78.7% 0.0 mm
07:09 13.3 °C 9.5 °C 1011.3 hPa NNE 16.1 km/h 32.2 km/h 77.4% 0.0 mm
07:14 13.5 °C 9.5 °C 1011.3 hPa NNE 17.5 km/h 35.9 km/h 76.6% 0.0 mm
07:19 13.6 °C 9.5 °C 1011.3 hPa NNE 18 km/h 46.8 km/h 76.2% 0.0 mm
07:24 13.7 °C 9.6 °C 1011.3 hPa NNE 20.1 km/h 46.7 km/h 76.5% 0.0 mm
07:29 13.7 °C 9.7 °C 1011.3 hPa NE 20.9 km/h 50.4 km/h 77% 0.0 mm
07:34 13.7 °C 9.9 °C 1011.3 hPa NE 22.7 km/h 49.9 km/h 77.9% 0.0 mm
07:39 13.6 °C 10 °C 1011.5 hPa NNE 23.3 km/h 40.7 km/h 78.9% 0.0 mm
07:44 13.4 °C 10 °C 1011.5 hPa NE 19.8 km/h 40.2 km/h 79.8% 0.0 mm
07:49 13.4 °C 10 °C 1011.5 hPa NNE 18.4 km/h 35.4 km/h 80% 0.0 mm
07:54 13.4 °C 10 °C 1011.5 hPa NNE 18.1 km/h 39.9 km/h 79.8% 0.0 mm
07:59 13.6 °C 9.7 °C 1011.5 hPa NNE 18 km/h 40.7 km/h 77.3% 0.0 mm
08:04 13.7 °C 9.4 °C 1011.5 hPa NE 22.1 km/h 40.7 km/h 75.2% 0.0 mm
08:09 13.8 °C 9.3 °C 1011.5 hPa NNE 23.3 km/h 42.6 km/h 74.1% 0.0 mm
08:14 13.9 °C 9.2 °C 1011.5 hPa NNE 22.2 km/h 44.9 km/h 73.6% 0.0 mm
08:19 13.8 °C 9.1 °C 1011.5 hPa NNE 21.7 km/h 45.1 km/h 73.2% 0.0 mm
08:24 13.8 °C 9.1 °C 1011.7 hPa NNE 22.9 km/h 50.1 km/h 73% 0.0 mm
08:29 13.8 °C 9.1 °C 1011.7 hPa NNE 23.3 km/h 49.9 km/h 73% 0.0 mm
08:34 13.8 °C 9 °C 1011.7 hPa NE 23.6 km/h 39.6 km/h 72.6% 0.0 mm
08:39 13.8 °C 8.8 °C 1011.7 hPa NNE 23.7 km/h 40.2 km/h 72% 0.0 mm
08:44 13.8 °C 8.8 °C 1011.6 hPa NE 24.7 km/h 39.9 km/h 72% 0.0 mm
08:49 13.7 °C 8.8 °C 1011.6 hPa NNE 25.1 km/h 44.9 km/h 72% 0.0 mm
08:54 13.7 °C 8.9 °C 1011.6 hPa NNE 23.2 km/h 45.1 km/h 72.8% 0.0 mm
08:59 13.7 °C 9.1 °C 1011.6 hPa NE 22.5 km/h 41.8 km/h 73.5% 0.0 mm
09:04 13.7 °C 9.1 °C 1011.6 hPa NNE 23.1 km/h 43.9 km/h 73.6% 0.0 mm
09:09 13.7 °C 8.9 °C 1011.6 hPa NE 23.3 km/h 45.1 km/h 72.8% 0.0 mm
09:14 13.8 °C 8.9 °C 1011.6 hPa NNE 25 km/h 46.3 km/h 72% 0.0 mm
09:19 13.9 °C 8.9 °C 1011.6 hPa NNE 25.6 km/h 46.7 km/h 72% 0.0 mm
09:24 13.9 °C 9 °C 1011.6 hPa NE 23.4 km/h 44.4 km/h 72.6% 0.0 mm
09:29 13.8 °C 9.1 °C 1011.6 hPa NNE 22.5 km/h 45.1 km/h 73.3% 0.0 mm
09:34 13.8 °C 9.2 °C 1011.6 hPa NE 20.8 km/h 40.2 km/h 74% 0.0 mm
09:39 13.7 °C 9.2 °C 1011.7 hPa NE 20.1 km/h 37 km/h 74.7% 0.0 mm
09:44 13.6 °C 9.2 °C 1011.7 hPa NE 19.3 km/h 38.9 km/h 75% 0.0 mm
09:49 13.6 °C 9.2 °C 1011.7 hPa NE 19 km/h 44.9 km/h 74.9% 0.0 mm
09:54 13.6 °C 9.1 °C 1011.7 hPa NNE 21.2 km/h 45.1 km/h 74% 0.0 mm
09:59 13.6 °C 9.1 °C 1011.7 hPa NE 22.1 km/h 43.5 km/h 74% 0.0 mm
10:04 13.6 °C 9.1 °C 1011.7 hPa NNE 21.8 km/h 41.8 km/h 74% 0.0 mm
10:09 13.6 °C 9.1 °C 1012.0 hPa NE 21.7 km/h 40.7 km/h 74% 0.0 mm
10:14 13.6 °C 9.1 °C 1012.0 hPa NNE 23.1 km/h 40.2 km/h 74.4% 0.0 mm
10:19 13.4 °C 9.1 °C 1012.0 hPa NNE 23.7 km/h 35.4 km/h 75.1% 0.0 mm
10:24 13.4 °C 9.1 °C 1012.0 hPa NNE 22.3 km/h 38.9 km/h 75.4% 0.0 mm
10:29 13.4 °C 9 °C 1011.9 hPa NNE 21.7 km/h 46.3 km/h 74.7% 0.0 mm
10:34 13.5 °C 8.9 °C 1011.9 hPa NNE 23.1 km/h 46.7 km/h 74% 0.0 mm
10:39 13.5 °C 8.9 °C 1012.0 hPa NNE 23.7 km/h 43.5 km/h 73.5% 0.0 mm
10:44 13.6 °C 8.8 °C 1012.0 hPa NE 22.8 km/h 44.4 km/h 73% 0.0 mm
10:49 13.6 °C 8.8 °C 1012.0 hPa NNE 22.5 km/h 45.1 km/h 73% 0.0 mm
10:54 13.6 °C 8.8 °C 1012.0 hPa NE 23.9 km/h 42.6 km/h 73% 0.0 mm
10:59 13.6 °C 8.9 °C 1012.0 hPa NE 24.5 km/h 42.6 km/h 73% 0.0 mm
11:04 13.7 °C 8.9 °C 1012.0 hPa NNE 23.6 km/h 41.8 km/h 72.9% 0.0 mm
11:09 13.7 °C 8.9 °C 1012.1 hPa NE 23.3 km/h 50.4 km/h 72.8% 0.0 mm
11:14 13.7 °C 8.9 °C 1012.1 hPa NNE 25.5 km/h 49.9 km/h 73% 0.3 mm
11:19 13.7 °C 8.9 °C 1012.1 hPa NNE 26.2 km/h 48.3 km/h 73% 0.3 mm
11:24 13.7 °C 8.8 °C 1012.1 hPa NE 27.6 km/h 51.8 km/h 72.2% 0.3 mm
11:29 13.7 °C 8.7 °C 1011.9 hPa NE 28.2 km/h 51.8 km/h 71.6% 0.3 mm
11:34 13.7 °C 8.7 °C 1011.9 hPa NE 28.5 km/h 51.5 km/h 72% 0.3 mm
11:39 13.7 °C 8.6 °C 1011.9 hPa NNE 28.7 km/h 46.7 km/h 71.1% 0.3 mm
11:44 13.7 °C 8.6 °C 1011.9 hPa NNE 25.6 km/h 46.8 km/h 71% 0.3 mm
11:49 13.7 °C 8.6 °C 1011.9 hPa NE 24.5 km/h 46.7 km/h 71% 0.3 mm
11:54 13.7 °C 8.7 °C 1011.9 hPa NNE 26.5 km/h 46.7 km/h 71.9% 0.3 mm
11:59 13.7 °C 8.7 °C 1011.7 hPa NNE 27.4 km/h 44.4 km/h 72% 0.3 mm
12:04 13.7 °C 8.8 °C 1011.7 hPa NE 25.7 km/h 45.1 km/h 72.1% 0.3 mm
12:09 13.7 °C 8.9 °C 1011.7 hPa NNE 25.1 km/h 41.8 km/h 73% 0.3 mm
12:14 13.7 °C 8.9 °C 1011.5 hPa NE 25.1 km/h 40.2 km/h 73% 0.3 mm
12:19 13.7 °C 9 °C 1011.5 hPa NE 25.1 km/h 46.3 km/h 73.1% 0.0 mm
12:24 13.8 °C 9.1 °C 1011.5 hPa NE 25.9 km/h 46.7 km/h 73.4% 0.0 mm
12:29 13.7 °C 9.2 °C 1011.4 hPa NE 26.2 km/h 41.8 km/h 74% 0.0 mm
12:34 13.7 °C 9.2 °C 1011.4 hPa NE 23.2 km/h 40.7 km/h 74.1% 0.0 mm
12:39 13.5 °C 9.2 °C 1011.4 hPa NE 22.1 km/h 53.3 km/h 75.3% 0.0 mm
12:44 13.3 °C 9.3 °C 1011.1 hPa NNE 25.7 km/h 53.8 km/h 76.3% 0.0 mm
12:49 13.2 °C 9.4 °C 1011.1 hPa NE 27 km/h 53.1 km/h 77.7% 0.0 mm
12:54 13 °C 9.4 °C 1011.1 hPa NNE 25.6 km/h 44.9 km/h 79% 0.0 mm
12:59 12.9 °C 9.5 °C 1010.9 hPa NNE 25.1 km/h 45.1 km/h 79.7% 0.0 mm
13:04 12.8 °C 9.6 °C 1010.9 hPa NNE 24 km/h 38.6 km/h 81% 0.0 mm
13:09 12.7 °C 9.8 °C 1010.9 hPa NNE 23.7 km/h 41.2 km/h 82.3% 0.0 mm
13:14 12.6 °C 9.8 °C 1010.7 hPa NNE 21.7 km/h 41.8 km/h 83% 0.0 mm
13:19 12.6 °C 9.8 °C 1010.7 hPa NNE 20.9 km/h 40.2 km/h 83.4% 0.0 mm
13:24 12.5 °C 9.9 °C 1010.7 hPa NNE 23.9 km/h 50.1 km/h 84.3% 0.0 mm
13:29 12.3 °C 10 °C 1010.7 hPa NNE 25.1 km/h 49.9 km/h 85.6% 0.0 mm
13:34 12.2 °C 10.1 °C 1010.7 hPa NNE 22.9 km/h 38.6 km/h 87.1% 0.2 mm
13:39 12.1 °C 10.2 °C 1010.7 hPa NE 22.1 km/h 37 km/h 88.3% 0.2 mm
13:44 11.9 °C 10.2 °C 1010.5 hPa NNE 19.1 km/h 39.6 km/h 89% 0.5 mm
13:49 11.8 °C 10.1 °C 1010.5 hPa NNE 18 km/h 40.2 km/h 89.2% 0.8 mm
13:54 11.8 °C 10.2 °C 1010.5 hPa NE 22.1 km/h 40.2 km/h 90% 0.8 mm
13:59 11.7 °C 10.1 °C 1010.4 hPa NNE 23.7 km/h 41.2 km/h 90% 1.0 mm
14:04 11.7 °C 10.1 °C 1010.4 hPa NE 22.2 km/h 41.8 km/h 90% 1.5 mm
14:09 11.7 °C 10.3 °C 1010.4 hPa NE 21.7 km/h 41.8 km/h 90.9% 1.5 mm
14:14 11.7 °C 10.3 °C 1010.1 hPa NE 19.7 km/h 30.6 km/h 91% 1.8 mm
14:19 11.7 °C 10.3 °C 1010.1 hPa NE 19 km/h 25.9 km/h 91% 1.8 mm
14:24 11.7 °C 10.3 °C 1010.1 hPa NE 15.9 km/h 25.7 km/h 91% 1.8 mm
14:29 11.7 °C 10.3 °C 1009.9 hPa NE 14.8 km/h 24.1 km/h 91% 1.8 mm
14:34 11.7 °C 10.3 °C 1009.9 hPa NNE 12.2 km/h 19.3 km/h 91% 1.8 mm
14:39 11.7 °C 10.3 °C 1009.9 hPa NNE 11.1 km/h 22.5 km/h 91% 1.6 mm
14:44 11.8 °C 10.4 °C 1009.8 hPa NNE 11.7 km/h 22.5 km/h 91% 1.6 mm
14:49 11.8 °C 10.4 °C 1009.8 hPa NNE 11.9 km/h 20.9 km/h 91% 1.3 mm
14:54 11.8 °C 10.4 °C 1009.8 hPa NE 12.7 km/h 28.2 km/h 90.9% 1.5 mm
14:59 11.8 °C 10.4 °C 1009.6 hPa NE 13 km/h 27.8 km/h 91% 1.8 mm
15:04 11.7 °C 10.3 °C 1009.6 hPa NE 16.2 km/h 27.4 km/h 91% 1.5 mm
15:09 11.7 °C 10.3 °C 1009.7 hPa NE 17.2 km/h 24.1 km/h 91% 1.3 mm
15:14 11.7 °C 10.3 °C 1009.7 hPa NNE 14.2 km/h 25.9 km/h 91% 1.6 mm
15:19 11.6 °C 10.2 °C 1009.7 hPa NE 13 km/h 28.2 km/h 91% 1.3 mm
15:24 11.6 °C 10.2 °C 1009.7 hPa NE 15.2 km/h 29.6 km/h 91% 1.3 mm
15:29 11.7 °C 10.2 °C 1009.4 hPa NNE 16.1 km/h 29.6 km/h 90.5% 1.3 mm
15:34 11.7 °C 10.1 °C 1009.4 hPa NNE 14.6 km/h 22.5 km/h 90% 1.3 mm
15:39 11.8 °C 10.2 °C 1009.4 hPa NE 14 km/h 22.5 km/h 90% 1.3 mm
15:44 11.8 °C 10.2 °C 1009.4 hPa NE 13.3 km/h 24.5 km/h 90% 1.3 mm
15:49 11.9 °C 10.2 °C 1009.4 hPa NE 13 km/h 29.6 km/h 89.3% 1.3 mm
15:54 11.8 °C 10.1 °C 1009.4 hPa NE 15.3 km/h 39.6 km/h 88.8% 1.3 mm
15:59 11.7 °C 9.8 °C 1009.4 hPa NE 16.1 km/h 40.2 km/h 88.4% 0.6 mm
16:04 11.5 °C 9.7 °C 1009.4 hPa NE 20.4 km/h 38.6 km/h 89.1% 0.3 mm
16:09 11.2 °C 9.6 °C 1009.5 hPa NE 21.7 km/h 44.4 km/h 90% 0.8 mm
16:14 11.1 °C 9.6 °C 1009.5 hPa NE 20.6 km/h 45.1 km/h 90.8% 1.0 mm
16:19 10.9 °C 9.6 °C 1009.5 hPa NE 20.1 km/h 33.8 km/h 91.5% 1.5 mm
16:24 10.8 °C 9.5 °C 1009.6 hPa NE 17.4 km/h 35.2 km/h 92% 1.8 mm
16:29 10.7 °C 9.6 °C 1009.6 hPa NE 16.4 km/h 35.4 km/h 92.7% 1.8 mm
16:34 10.7 °C 9.6 °C 1009.6 hPa NE 17.6 km/h 25.9 km/h 93% 2.0 mm
16:39 10.7 °C 9.6 °C 1009.6 hPa NE 18 km/h 25.7 km/h 93% 2.0 mm
16:44 10.7 °C 9.6 °C 1009.4 hPa NE 14.9 km/h 20.9 km/h 93% 2.0 mm
16:49 10.7 °C 9.6 °C 1009.4 hPa NE 13.7 km/h 22.2 km/h 93% 2.0 mm
16:54 10.7 °C 9.6 °C 1009.4 hPa NE 11.2 km/h 22.5 km/h 93% 2.3 mm
16:59 10.7 °C 9.6 °C 1009.3 hPa NE 10.3 km/h 14.8 km/h 93% 2.3 mm
17:04 10.7 °C 9.6 °C 1009.3 hPa NNE 9.7 km/h 14.5 km/h 93% 2.3 mm
17:09 10.7 °C 9.6 °C 1009.3 hPa NE 9.5 km/h 12.9 km/h 93% 2.1 mm
17:14 10.7 °C 9.6 °C 1009.3 hPa NE 6.2 km/h 9.7 km/h 93% 1.8 mm
17:19 10.8 °C 9.7 °C 1009.3 hPa ONO 5 km/h 9.7 km/h 93% 1.3 mm
17:24 10.8 °C 9.8 °C 1009.4 hPa Oeste 4.8 km/h 9.7 km/h 93.5% 0.8 mm
17:29 10.8 °C 9.9 °C 1009.4 hPa OSO 4.7 km/h 11.1 km/h 94% 0.5 mm
17:34 10.9 °C 9.9 °C 1009.4 hPa OSO 4.7 km/h 11.3 km/h 94% 0.3 mm
17:39 10.9 °C 9.9 °C 1009.4 hPa SSO 4.7 km/h 8 km/h 94% 0.3 mm
17:44 10.9 °C 9.9 °C 1009.3 hPa Sur 3.4 km/h 6.4 km/h 94% 0.3 mm
17:49 10.9 °C 9.9 °C 1009.3 hPa Sur 2.9 km/h   94% 0.3 mm
17:54 10.9 °C 9.9 °C 1009.4 hPa SSE 0.8 km/h   94% 0.0 mm
17:59 10.9 °C 9.9 °C 1009.4 hPa Calm   4.7 km/h 94% 0.0 mm
18:04 10.9 °C 9.9 °C 1009.4 hPa Calm   7.4 km/h 94% 0.0 mm
18:09 11 °C 10 °C 1009.4 hPa Calm   8.4 km/h 94% 0.0 mm
18:14 11.1 °C 10.1 °C 1009.3 hPa OSO 2.9 km/h 8 km/h 94% 0.0 mm
18:19 11.1 °C 10.2 °C 1009.3 hPa OSO 3.9 km/h 8 km/h 94% 0.0 mm
18:24 11.1 °C 10.2 °C 1009.3 hPa SO 4.4 km/h 9.3 km/h 94% 0.0 mm
18:29 11.1 °C 10.2 °C 1009.3 hPa SO 4.7 km/h 9.7 km/h 94% 0.0 mm
18:34 11.2 °C 10.2 °C 1009.3 hPa SSO 3.4 km/h 8 km/h 94% 0.0 mm
18:39 11.2 °C 10.3 °C 1009.5 hPa Sur 2.9 km/h 10 km/h 94% 0.0 mm
18:44 11.2 °C 10.3 °C 1009.5 hPa SSE 4.4 km/h 10.3 km/h 94% 0.0 mm
18:49 11.2 °C 10.3 °C 1009.5 hPa SSE 5 km/h 11.9 km/h 94% 0.0 mm
18:54 11.2 °C 10.2 °C 1009.6 hPa SSE 6.4 km/h 13 km/h 94% 0.0 mm
18:59 11.1 °C 10.2 °C 1009.6 hPa Sur 6.9 km/h 12.9 km/h 94% 0.0 mm
19:04 11.1 °C 10.2 °C 1009.6 hPa SO 6.9 km/h 11.3 km/h 94% 0.0 mm
19:09 11.1 °C 10.2 °C 1009.6 hPa OSO 6.9 km/h 11.3 km/h 94% 0.0 mm
19:14 11.2 °C 10.3 °C 1009.6 hPa OSO 4.7 km/h 8 km/h 94% 0.0 mm
19:19 11.1 °C 10.1 °C 1009.6 hPa OSO 3.9 km/h 11.9 km/h 93.7% 0.0 mm
19:24 11.1 °C 10 °C 1009.6 hPa OSO 5.3 km/h 11.3 km/h 93% 0.0 mm
19:29 11.1 °C 9.9 °C 1009.5 hPa OSO 5.8 km/h 11.3 km/h 92.6% 0.0 mm
19:34 11.1 °C 9.8 °C 1009.5 hPa OSO 6.3 km/h 11.3 km/h 92% 0.0 mm
19:39 11.1 °C 9.7 °C 1009.6 hPa Oeste 6.5 km/h 10 km/h 91.3% 0.0 mm
19:44 11.1 °C 9.6 °C 1009.6 hPa ONO 6 km/h 11.9 km/h 90.9% 0.0 mm
19:49 11.1 °C 9.5 °C 1009.6 hPa ONO 5.8 km/h 14 km/h 90% 0.0 mm
19:54 11.1 °C 9.3 °C 1009.6 hPa ONO 7.7 km/h 16.7 km/h 88.9% 0.0 mm
19:59 11.1 °C 9.1 °C 1009.5 hPa ONO 8.4 km/h 16.7 km/h 87.7% 0.0 mm
20:04 11.1 °C 9 °C 1009.5 hPa ONO 9.6 km/h 18.5 km/h 87% 0.0 mm
20:09 11.1 °C 8.8 °C 1009.5 hPa ONO 10 km/h 19.3 km/h 85.8% 0.0 mm
20:14 11.1 °C 8.6 °C 1009.5 hPa ONO 9.6 km/h 18.5 km/h 84.8% 0.0 mm
20:19 11.2 °C 8.5 °C 1009.5 hPa ONO 9.5 km/h 19.3 km/h 83.9% 0.0 mm
20:24 11.2 °C 8.4 °C 1009.5 hPa ONO 10.7 km/h 17.7 km/h 83% 0.0 mm
20:29 11.2 °C 8.2 °C 1009.5 hPa ONO 11.1 km/h 20.4 km/h 82.1% 0.0 mm
20:34 11.3 °C 8.2 °C 1009.5 hPa ONO 11.1 km/h 20.9 km/h 81.2% 0.0 mm
20:39 11.3 °C 8.1 °C 1009.5 hPa ONO 11.1 km/h 19.3 km/h 80.6% 0.0 mm
20:44 11.3 °C 8 °C 1009.5 hPa ONO 11.1 km/h 24.1 km/h 80% 0.0 mm
20:49 11.3 °C 7.8 °C 1009.5 hPa ONO 11.1 km/h 24.1 km/h 79.2% 0.0 mm
20:54 11.4 °C 7.8 °C 1009.5 hPa ONO 12.5 km/h 22.5 km/h 78.5% 0.0 mm
20:59 11.4 °C 7.7 °C 1009.5 hPa ONO 13 km/h 20.9 km/h 78% 0.0 mm
21:04 11.4 °C 7.6 °C 1009.5 hPa Oeste 12.4 km/h 20.9 km/h 77.5% 0.0 mm
21:09 11.4 °C 7.5 °C 1009.5 hPa Oeste 12.2 km/h 20.4 km/h 77% 0.0 mm
21:14 11.4 °C 7.5 °C 1009.5 hPa Oeste 12 km/h 20.9 km/h 77% 0.0 mm
21:19 11.5 °C 7.6 °C 1009.5 hPa Oeste 11.9 km/h 22.5 km/h 77% 0.0 mm
21:24 11.5 °C 7.7 °C 1009.5 hPa Oeste 10.7 km/h 22.5 km/h 77.7% 0.0 mm
21:29 11.4 °C 7.8 °C 1009.5 hPa Oeste 10.3 km/h 15.6 km/h 78.6% 0.0 mm
21:34 11.3 °C 8.1 °C 1009.5 hPa Oeste 9.1 km/h 17.2 km/h 80.2% 0.0 mm
21:39 11.2 °C 8 °C 1009.5 hPa Oeste 8.7 km/h 20.9 km/h 81% 0.0 mm
21:44 11.1 °C 7.9 °C 1009.4 hPa Oeste 9.6 km/h 20.9 km/h 81% 0.0 mm
21:49 11.1 °C 7.9 °C 1009.4 hPa OSO 10 km/h 20.1 km/h 81% 0.0 mm
21:54 11 °C 7.9 °C 1009.4 hPa OSO 10.8 km/h 20.9 km/h 81% 0.0 mm
21:59 11 °C 7.9 °C 1009.3 hPa OSO 11.1 km/h 16.1 km/h 81% 0.0 mm
22:04 11 °C 7.9 °C 1009.3 hPa Oeste 10.2 km/h 17.2 km/h 81% 0.0 mm
22:09 11 °C 7.7 °C 1009.3 hPa OSO 10 km/h 20.9 km/h 80.1% 0.0 mm
22:14 11 °C 7.6 °C 1009.3 hPa OSO 10.8 km/h 20.9 km/h 79.5% 0.0 mm
22:19 11.1 °C 7.6 °C 1009.3 hPa OSO 11.1 km/h 25.6 km/h 79% 0.0 mm
22:24 11.1 °C 7.4 °C 1009.3 hPa Oeste 11.9 km/h 25.9 km/h 78% 0.0 mm
22:29 11.1 °C 7.4 °C 1009.1 hPa Oeste 12.2 km/h 25.7 km/h 78% 0.0 mm
22:34 11.1 °C 7.4 °C 1009.1 hPa OSO 12.2 km/h 25.9 km/h 78% 0.0 mm
22:39 11.1 °C 7.4 °C 1009.1 hPa OSO 12.2 km/h 25.7 km/h 78% 0.0 mm
22:44 11.1 °C 7.4 °C 1009.0 hPa OSO 11.4 km/h 20.9 km/h 78% 0.0 mm
22:49 11 °C 7.4 °C 1009.0 hPa Oeste 11.1 km/h 25.9 km/h 78.4% 0.0 mm
22:54 10.9 °C 7.4 °C 1009.0 hPa Oeste 11.1 km/h 25.7 km/h 79% 0.0 mm
22:59 10.9 °C 7.3 °C 1008.9 hPa Oeste 11.1 km/h 30.6 km/h 78.5% 0.0 mm
23:04 10.9 °C 7.4 °C 1008.9 hPa Oeste 14.6 km/h 30.6 km/h 78.9% 0.0 mm
23:09 10.9 °C 7.3 °C 1008.9 hPa Oeste 15.6 km/h 27.8 km/h 78.4% 0.0 mm
23:14 10.9 °C 7.4 °C 1008.9 hPa Oeste 15 km/h 27.8 km/h 78.9% 0.0 mm
23:19 10.9 °C 7.3 °C 1008.9 hPa Oeste 14.8 km/h 27.8 km/h 78.7% 0.0 mm
23:24 10.9 °C 7.3 °C 1008.9 hPa Oeste 12.1 km/h 25.9 km/h 78.7% 0.0 mm
23:29 10.9 °C 7.2 °C 1008.6 hPa Oeste 11.1 km/h 25.9 km/h 78% 0.0 mm
23:34 11 °C 7.3 °C 1008.6 hPa Oeste 12.5 km/h 25.7 km/h 78% 0.0 mm
23:39 11 °C 7.3 °C 1008.6 hPa Oeste 13 km/h 22.5 km/h 78% 0.0 mm
23:44 11 °C 7.3 °C 1008.6 hPa Oeste 10.8 km/h 24.5 km/h 78% 0.0 mm
23:49 10.9 °C 7.3 °C 1008.6 hPa OSO 10 km/h 24.1 km/h 78% 0.0 mm
23:54 10.9 °C 7.2 °C 1008.6 hPa OSO 11.6 km/h 29.6 km/h 78% 0.0 mm
23:59 10.9 °C 7.2 °C 1008.4 hPa OSO 12.2 km/h 29 km/h 78% 0.0 mm
Murcia-Puente Tocinos, Espa?a
Compliments of Weather Underground - 3.25 mb

La estación de MeteoMurcia.com, publica sus datos en los siguientes proyectos:

Weather Underground PWS IMURCIAP2 Meteoclimatic www.awekas.at

W3Counter
Web Analytics